sensor_id;sensor_type;location;lat;lon;timestamp;P1;durP1;ratioP1;P2;durP2;ratioP2
15944;SDS011;30172;48.832;8.732;2023-05-07T00:02:06;4.20;;;2.33;;
15944;SDS011;30172;48.832;8.732;2023-05-07T00:04:53;4.50;;;2.60;;
15944;SDS011;30172;48.832;8.732;2023-05-07T00:07:34;2.97;;;2.07;;
15944;SDS011;30172;48.832;8.732;2023-05-07T00:10:17;5.27;;;2.97;;
15944;SDS011;30172;48.832;8.732;2023-05-07T00:13:02;3.23;;;2.37;;
15944;SDS011;30172;48.832;8.732;2023-05-07T00:19:17;4.10;;;2.40;;
15944;SDS011;30172;48.832;8.732;2023-05-07T00:22:15;3.83;;;2.40;;
15944;SDS011;30172;48.832;8.732;2023-05-07T00:27:56;3.93;;;2.33;;
15944;SDS011;30172;48.832;8.732;2023-05-07T00:30:34;2.70;;;2.50;;
15944;SDS011;30172;48.832;8.732;2023-05-07T00:33:46;4.87;;;2.50;;
15944;SDS011;30172;48.832;8.732;2023-05-07T00:36:17;2.20;;;2.03;;
15944;SDS011;30172;48.832;8.732;2023-05-07T00:41:59;3.70;;;2.40;;
15944;SDS011;30172;48.832;8.732;2023-05-07T00:44:56;3.30;;;2.80;;
15944;SDS011;30172;48.832;8.732;2023-05-07T00:57:14;3.17;;;2.40;;
15944;SDS011;30172;48.832;8.732;2023-05-07T00:59:59;2.27;;;2.03;;
15944;SDS011;30172;48.832;8.732;2023-05-07T01:02:42;3.03;;;2.57;;
15944;SDS011;30172;48.832;8.732;2023-05-07T01:08:33;5.70;;;2.70;;
15944;SDS011;30172;48.832;8.732;2023-05-07T01:11:20;2.83;;;2.63;;
15944;SDS011;30172;48.832;8.732;2023-05-07T01:14:27;3.17;;;2.87;;
15944;SDS011;30172;48.832;8.732;2023-05-07T01:22:46;2.97;;;2.43;;
15944;SDS011;30172;48.832;8.732;2023-05-07T01:28:50;5.83;;;2.67;;
15944;SDS011;30172;48.832;8.732;2023-05-07T01:31:44;5.07;;;2.80;;
15944;SDS011;30172;48.832;8.732;2023-05-07T01:37:48;3.63;;;2.53;;
15944;SDS011;30172;48.832;8.732;2023-05-07T01:40:29;6.07;;;2.50;;
15944;SDS011;30172;48.832;8.732;2023-05-07T01:43:50;5.07;;;2.87;;
15944;SDS011;30172;48.832;8.732;2023-05-07T01:56:31;2.70;;;2.50;;
15944;SDS011;30172;48.832;8.732;2023-05-07T01:59:41;3.50;;;2.77;;
15944;SDS011;30172;48.832;8.732;2023-05-07T02:06:07;3.80;;;2.70;;
15944;SDS011;30172;48.832;8.732;2023-05-07T02:09:02;4.43;;;3.50;;
15944;SDS011;30172;48.832;8.732;2023-05-07T02:15:10;2.93;;;2.73;;
15944;SDS011;30172;48.832;8.732;2023-05-07T02:18:11;4.70;;;2.40;;
15944;SDS011;30172;48.832;8.732;2023-05-07T02:20:59;3.63;;;2.50;;
15944;SDS011;30172;48.832;8.732;2023-05-07T02:23:50;3.93;;;2.70;;
15944;SDS011;30172;48.832;8.732;2023-05-07T02:26:32;4.27;;;3.07;;
15944;SDS011;30172;48.832;8.732;2023-05-07T02:29:00;3.50;;;2.77;;
15944;SDS011;30172;48.832;8.732;2023-05-07T02:34:50;3.27;;;2.93;;
15944;SDS011;30172;48.832;8.732;2023-05-07T02:37:23;5.87;;;3.00;;
15944;SDS011;30172;48.832;8.732;2023-05-07T02:39:57;3.97;;;3.00;;
15944;SDS011;30172;48.832;8.732;2023-05-07T02:42:29;3.77;;;3.10;;
15944;SDS011;30172;48.832;8.732;2023-05-07T02:45:07;5.20;;;3.00;;
15944;SDS011;30172;48.832;8.732;2023-05-07T02:47:54;2.90;;;2.70;;
15944;SDS011;30172;48.832;8.732;2023-05-07T02:50:38;3.57;;;3.23;;
15944;SDS011;30172;48.832;8.732;2023-05-07T02:56:37;5.10;;;3.17;;
15944;SDS011;30172;48.832;8.732;2023-05-07T02:59:36;3.43;;;3.00;;
15944;SDS011;30172;48.832;8.732;2023-05-07T03:02:49;4.87;;;3.27;;
15944;SDS011;30172;48.832;8.732;2023-05-07T03:05:38;4.17;;;2.93;;
15944;SDS011;30172;48.832;8.732;2023-05-07T03:09:11;3.37;;;2.97;;
15944;SDS011;30172;48.832;8.732;2023-05-07T03:11:50;4.77;;;3.07;;
15944;SDS011;30172;48.832;8.732;2023-05-07T03:14:36;3.17;;;2.87;;
15944;SDS011;30172;48.832;8.732;2023-05-07T03:17:21;4.70;;;3.00;;
15944;SDS011;30172;48.832;8.732;2023-05-07T03:29:26;5.90;;;2.97;;
15944;SDS011;30172;48.832;8.732;2023-05-07T03:32:25;3.03;;;2.73;;
15944;SDS011;30172;48.832;8.732;2023-05-07T03:41:01;3.17;;;2.80;;
15944;SDS011;30172;48.832;8.732;2023-05-07T03:43:53;6.07;;;3.27;;
15944;SDS011;30172;48.832;8.732;2023-05-07T03:49:58;4.97;;;2.97;;
15944;SDS011;30172;48.832;8.732;2023-05-07T03:52:31;6.90;;;3.40;;
15944;SDS011;30172;48.832;8.732;2023-05-07T03:55:30;4.23;;;2.77;;
15944;SDS011;30172;48.832;8.732;2023-05-07T03:58:36;2.93;;;2.70;;
15944;SDS011;30172;48.832;8.732;2023-05-07T04:01:16;3.53;;;3.13;;
15944;SDS011;30172;48.832;8.732;2023-05-07T04:03:52;3.27;;;2.80;;
15944;SDS011;30172;48.832;8.732;2023-05-07T04:06:29;3.13;;;2.80;;
15944;SDS011;30172;48.832;8.732;2023-05-07T04:09:02;3.40;;;3.10;;
15944;SDS011;30172;48.832;8.732;2023-05-07T04:11:57;4.57;;;3.07;;
15944;SDS011;30172;48.832;8.732;2023-05-07T04:17:58;3.17;;;2.87;;
15944;SDS011;30172;48.832;8.732;2023-05-07T04:20:34;3.50;;;2.97;;
15944;SDS011;30172;48.832;8.732;2023-05-07T04:23:22;2.80;;;2.60;;
15944;SDS011;30172;48.832;8.732;2023-05-07T04:26:36;6.63;;;3.20;;
15944;SDS011;30172;48.832;8.732;2023-05-07T04:29:23;2.83;;;2.53;;
15944;SDS011;30172;48.832;8.732;2023-05-07T04:32:04;3.27;;;2.80;;
15944;SDS011;30172;48.832;8.732;2023-05-07T04:34:59;3.03;;;2.83;;
15944;SDS011;30172;48.832;8.732;2023-05-07T04:37:33;4.87;;;2.60;;
15944;SDS011;30172;48.832;8.732;2023-05-07T04:40:28;3.57;;;2.43;;
15944;SDS011;30172;48.832;8.732;2023-05-07T04:43:01;4.33;;;2.80;;
15944;SDS011;30172;48.832;8.732;2023-05-07T04:45:42;2.50;;;2.30;;
15944;SDS011;30172;48.832;8.732;2023-05-07T04:48:17;4.83;;;2.83;;
15944;SDS011;30172;48.832;8.732;2023-05-07T04:51:04;2.93;;;2.73;;
15944;SDS011;30172;48.832;8.732;2023-05-07T04:53:35;3.17;;;2.47;;
15944;SDS011;30172;48.832;8.732;2023-05-07T04:56:08;2.73;;;2.50;;
15944;SDS011;30172;48.832;8.732;2023-05-07T04:58:59;3.40;;;2.63;;
15944;SDS011;30172;48.832;8.732;2023-05-07T05:01:34;2.87;;;2.30;;
15944;SDS011;30172;48.832;8.732;2023-05-07T05:04:07;3.97;;;2.73;;
15944;SDS011;30172;48.832;8.732;2023-05-07T05:06:52;4.20;;;2.30;;
15944;SDS011;30172;48.832;8.732;2023-05-07T05:12:40;4.72;;;2.42;;
15944;SDS011;30172;48.832;8.732;2023-05-07T05:15:06;2.55;;;2.35;;
15944;SDS011;30172;48.832;8.732;2023-05-07T05:17:32;2.50;;;2.30;;
15944;SDS011;30172;48.832;8.732;2023-05-07T05:19:59;2.85;;;2.13;;
15944;SDS011;30172;48.832;8.732;2023-05-07T05:22:24;2.40;;;2.20;;
15944;SDS011;30172;48.832;8.732;2023-05-07T05:24:50;4.53;;;1.98;;
15944;SDS011;30172;48.832;8.732;2023-05-07T05:27:16;2.20;;;2.00;;
15944;SDS011;30172;48.832;8.732;2023-05-07T05:29:41;1.88;;;1.77;;
15944;SDS011;30172;48.832;8.732;2023-05-07T05:32:07;2.20;;;2.00;;
15944;SDS011;30172;48.832;8.732;2023-05-07T05:34:32;2.97;;;2.00;;
15944;SDS011;30172;48.832;8.732;2023-05-07T05:36:58;2.30;;;2.08;;
15944;SDS011;30172;48.832;8.732;2023-05-07T05:39:24;2.28;;;2.08;;
15944;SDS011;30172;48.832;8.732;2023-05-07T05:41:49;4.10;;;2.13;;
15944;SDS011;30172;48.832;8.732;2023-05-07T05:44:14;4.35;;;1.80;;
15944;SDS011;30172;48.832;8.732;2023-05-07T05:46:40;3.88;;;1.88;;
15944;SDS011;30172;48.832;8.732;2023-05-07T05:49:06;4.47;;;2.00;;
15944;SDS011;30172;48.832;8.732;2023-05-07T05:51:34;2.50;;;2.30;;
15944;SDS011;30172;48.832;8.732;2023-05-07T05:53:59;4.57;;;1.90;;
15944;SDS011;30172;48.832;8.732;2023-05-07T05:56:25;2.20;;;2.00;;
15944;SDS011;30172;48.832;8.732;2023-05-07T05:58:53;2.35;;;1.95;;
15944;SDS011;30172;48.832;8.732;2023-05-07T06:01:19;2.42;;;2.22;;
15944;SDS011;30172;48.832;8.732;2023-05-07T06:03:44;2.17;;;1.88;;
15944;SDS011;30172;48.832;8.732;2023-05-07T06:06:12;1.88;;;1.70;;
15944;SDS011;30172;48.832;8.732;2023-05-07T06:08:39;3.25;;;2.13;;
15944;SDS011;30172;48.832;8.732;2023-05-07T06:11:04;2.00;;;1.60;;
15944;SDS011;30172;48.832;8.732;2023-05-07T06:13:30;2.25;;;1.50;;
15944;SDS011;30172;48.832;8.732;2023-05-07T06:15:57;1.90;;;1.80;;
15944;SDS011;30172;48.832;8.732;2023-05-07T06:18:23;2.15;;;1.95;;
15944;SDS011;30172;48.832;8.732;2023-05-07T06:20:51;1.98;;;1.85;;
15944;SDS011;30172;48.832;8.732;2023-05-07T06:23:18;3.08;;;1.70;;
15944;SDS011;30172;48.832;8.732;2023-05-07T06:25:49;3.15;;;2.20;;
15944;SDS011;30172;48.832;8.732;2023-05-07T06:28:15;4.32;;;1.88;;
15944;SDS011;30172;48.832;8.732;2023-05-07T06:30:40;3.30;;;2.10;;
15944;SDS011;30172;48.832;8.732;2023-05-07T06:33:06;3.60;;;2.35;;
15944;SDS011;30172;48.832;8.732;2023-05-07T06:35:31;4.32;;;1.80;;
15944;SDS011;30172;48.832;8.732;2023-05-07T06:37:56;2.85;;;1.95;;
15944;SDS011;30172;48.832;8.732;2023-05-07T06:40:29;2.97;;;1.95;;
15944;SDS011;30172;48.832;8.732;2023-05-07T06:42:57;1.85;;;1.67;;
15944;SDS011;30172;48.832;8.732;2023-05-07T06:45:25;4.97;;;1.98;;
15944;SDS011;30172;48.832;8.732;2023-05-07T06:48:02;2.08;;;1.98;;
15944;SDS011;30172;48.832;8.732;2023-05-07T06:50:45;5.28;;;1.88;;
15944;SDS011;30172;48.832;8.732;2023-05-07T06:53:49;3.00;;;2.17;;
15944;SDS011;30172;48.832;8.732;2023-05-07T06:57:01;2.53;;;2.20;;
15944;SDS011;30172;48.832;8.732;2023-05-07T07:09:49;2.05;;;1.85;;
15944;SDS011;30172;48.832;8.732;2023-05-07T07:12:53;2.85;;;2.42;;
15944;SDS011;30172;48.832;8.732;2023-05-07T07:15:26;2.80;;;2.60;;
15944;SDS011;30172;48.832;8.732;2023-05-07T07:18:23;3.67;;;3.08;;
15944;SDS011;30172;48.832;8.732;2023-05-07T08:34:16;2.83;;;2.58;;
15944;SDS011;30172;48.832;8.732;2023-05-07T08:40:39;3.28;;;2.08;;
15944;SDS011;30172;48.832;8.732;2023-05-07T08:43:57;5.50;;;2.70;;
15944;SDS011;30172;48.832;8.732;2023-05-07T08:46:49;3.25;;;2.17;;
15944;SDS011;30172;48.832;8.732;2023-05-07T08:49:18;3.28;;;2.83;;
15944;SDS011;30172;48.832;8.732;2023-05-07T08:51:45;4.32;;;2.40;;
15944;SDS011;30172;48.832;8.732;2023-05-07T08:54:10;2.30;;;2.10;;
15944;SDS011;30172;48.832;8.732;2023-05-07T08:56:36;3.00;;;2.70;;
15944;SDS011;30172;48.832;8.732;2023-05-07T08:59:20;2.92;;;2.63;;
15944;SDS011;30172;48.832;8.732;2023-05-07T09:01:45;2.47;;;2.28;;
15944;SDS011;30172;48.832;8.732;2023-05-07T09:04:19;5.40;;;2.05;;
15944;SDS011;30172;48.832;8.732;2023-05-07T09:06:48;3.38;;;2.50;;
15944;SDS011;30172;48.832;8.732;2023-05-07T09:09:36;4.05;;;2.53;;
15944;SDS011;30172;48.832;8.732;2023-05-07T09:41:01;3.22;;;2.60;;
15944;SDS011;30172;48.832;8.732;2023-05-07T09:43:37;5.95;;;2.85;;
15944;SDS011;30172;48.832;8.732;2023-05-07T09:46:07;2.67;;;2.40;;
15944;SDS011;30172;48.832;8.732;2023-05-07T09:48:37;5.25;;;2.67;;
15944;SDS011;30172;48.832;8.732;2023-05-07T09:51:12;2.92;;;2.60;;
15944;SDS011;30172;48.832;8.732;2023-05-07T09:53:43;3.45;;;2.45;;
15944;SDS011;30172;48.832;8.732;2023-05-07T09:56:22;3.10;;;2.55;;
15944;SDS011;30172;48.832;8.732;2023-05-07T09:59:15;4.82;;;3.15;;
15944;SDS011;30172;48.832;8.732;2023-05-07T10:01:42;2.70;;;2.50;;
15944;SDS011;30172;48.832;8.732;2023-05-07T10:04:11;3.10;;;2.60;;
15944;SDS011;30172;48.832;8.732;2023-05-07T10:06:46;3.22;;;2.92;;
15944;SDS011;30172;48.832;8.732;2023-05-07T10:09:24;3.60;;;2.50;;
15944;SDS011;30172;48.832;8.732;2023-05-07T13:45:54;7.45;;;5.38;;
15944;SDS011;30172;48.832;8.732;2023-05-07T13:51:50;6.80;;;3.05;;
15944;SDS011;30172;48.832;8.732;2023-05-07T13:58:09;4.28;;;2.40;;
15944;SDS011;30172;48.832;8.732;2023-05-07T14:00:45;5.97;;;2.58;;
15944;SDS011;30172;48.832;8.732;2023-05-07T14:03:13;3.95;;;2.20;;
15944;SDS011;30172;48.832;8.732;2023-05-07T14:05:38;3.75;;;2.22;;
15944;SDS011;30172;48.832;8.732;2023-05-07T14:08:06;3.28;;;1.88;;
15944;SDS011;30172;48.832;8.732;2023-05-07T14:10:35;3.35;;;2.13;;
15944;SDS011;30172;48.832;8.732;2023-05-07T14:13:01;4.93;;;2.60;;
15944;SDS011;30172;48.832;8.732;2023-05-07T14:15:29;2.00;;;1.90;;
15944;SDS011;30172;48.832;8.732;2023-05-07T14:17:54;3.58;;;2.25;;
15944;SDS011;30172;48.832;8.732;2023-05-07T14:20:20;4.20;;;2.10;;
15944;SDS011;30172;48.832;8.732;2023-05-07T14:22:45;2.90;;;2.10;;
15944;SDS011;30172;48.832;8.732;2023-05-07T14:25:11;3.55;;;2.47;;
15944;SDS011;30172;48.832;8.732;2023-05-07T14:27:36;3.63;;;2.30;;
15944;SDS011;30172;48.832;8.732;2023-05-07T14:30:04;4.80;;;2.13;;
15944;SDS011;30172;48.832;8.732;2023-05-07T14:32:30;2.33;;;2.03;;
15944;SDS011;30172;48.832;8.732;2023-05-07T14:35:06;1.92;;;1.83;;
15944;SDS011;30172;48.832;8.732;2023-05-07T14:37:39;2.88;;;2.08;;
15944;SDS011;30172;48.832;8.732;2023-05-07T14:40:05;3.15;;;2.63;;
15944;SDS011;30172;48.832;8.732;2023-05-07T14:42:34;2.45;;;1.80;;
15944;SDS011;30172;48.832;8.732;2023-05-07T14:44:59;2.50;;;2.20;;
15944;SDS011;30172;48.832;8.732;2023-05-07T14:47:27;2.85;;;2.22;;
15944;SDS011;30172;48.832;8.732;2023-05-07T14:49:52;2.75;;;2.33;;
15944;SDS011;30172;48.832;8.732;2023-05-07T14:52:18;3.22;;;2.15;;
15944;SDS011;30172;48.832;8.732;2023-05-07T14:54:43;2.58;;;2.30;;
15944;SDS011;30172;48.832;8.732;2023-05-07T14:57:09;3.30;;;2.17;;
15944;SDS011;30172;48.832;8.732;2023-05-07T14:59:38;4.32;;;2.25;;
15944;SDS011;30172;48.832;8.732;2023-05-07T15:02:04;4.75;;;2.92;;
15944;SDS011;30172;48.832;8.732;2023-05-07T15:04:32;4.03;;;2.30;;
15944;SDS011;30172;48.832;8.732;2023-05-07T15:06:58;3.35;;;2.30;;
15944;SDS011;30172;48.832;8.732;2023-05-07T15:09:24;3.05;;;2.03;;
15944;SDS011;30172;48.832;8.732;2023-05-07T15:11:49;2.42;;;2.22;;
15944;SDS011;30172;48.832;8.732;2023-05-07T15:14:14;5.18;;;2.33;;
15944;SDS011;30172;48.832;8.732;2023-05-07T15:16:40;5.43;;;2.72;;
15944;SDS011;30172;48.832;8.732;2023-05-07T15:19:05;4.10;;;2.40;;
15944;SDS011;30172;48.832;8.732;2023-05-07T15:21:31;2.63;;;2.10;;
15944;SDS011;30172;48.832;8.732;2023-05-07T15:23:59;4.25;;;2.08;;
15944;SDS011;30172;48.832;8.732;2023-05-07T15:26:24;2.70;;;2.20;;
15944;SDS011;30172;48.832;8.732;2023-05-07T15:28:50;2.25;;;1.98;;
15944;SDS011;30172;48.832;8.732;2023-05-07T15:31:15;2.80;;;2.20;;
15944;SDS011;30172;48.832;8.732;2023-05-07T15:33:44;3.25;;;1.98;;
15944;SDS011;30172;48.832;8.732;2023-05-07T15:36:09;4.05;;;1.75;;
15944;SDS011;30172;48.832;8.732;2023-05-07T15:38:35;2.13;;;1.92;;
15944;SDS011;30172;48.832;8.732;2023-05-07T15:44:11;2.53;;;2.33;;
15944;SDS011;30172;48.832;8.732;2023-05-07T15:46:36;3.25;;;2.13;;
15944;SDS011;30172;48.832;8.732;2023-05-07T15:49:07;3.10;;;2.35;;
15944;SDS011;30172;48.832;8.732;2023-05-07T15:57:51;3.58;;;2.45;;
15944;SDS011;30172;48.832;8.732;2023-05-07T16:57:13;4.30;;;2.50;;
15944;SDS011;30172;48.832;8.732;2023-05-07T17:11:07;2.83;;;2.50;;
15944;SDS011;30172;48.832;8.732;2023-05-07T17:34:58;4.57;;;4.13;;
15944;SDS011;30172;48.832;8.732;2023-05-07T17:41:01;5.45;;;4.90;;
15944;SDS011;30172;48.832;8.732;2023-05-07T17:50:47;5.28;;;4.80;;
15944;SDS011;30172;48.832;8.732;2023-05-07T17:53:12;4.78;;;4.38;;
15944;SDS011;30172;48.832;8.732;2023-05-07T17:55:43;5.40;;;4.25;;
15944;SDS011;30172;48.832;8.732;2023-05-07T17:58:10;5.28;;;4.10;;
15944;SDS011;30172;48.832;8.732;2023-05-07T18:00:36;4.13;;;3.80;;
15944;SDS011;30172;48.832;8.732;2023-05-07T18:03:01;5.40;;;4.57;;
15944;SDS011;30172;48.832;8.732;2023-05-07T18:05:27;5.63;;;5.15;;
15944;SDS011;30172;48.832;8.732;2023-05-07T19:13:04;7.55;;;6.07;;
15944;SDS011;30172;48.832;8.732;2023-05-07T19:25:41;4.35;;;2.97;;
15944;SDS011;30172;48.832;8.732;2023-05-07T19:28:15;5.23;;;3.67;;
15944;SDS011;30172;48.832;8.732;2023-05-07T19:30:54;4.55;;;3.53;;
15944;SDS011;30172;48.832;8.732;2023-05-07T19:33:31;3.90;;;3.50;;
15944;SDS011;30172;48.832;8.732;2023-05-07T19:36:45;4.03;;;3.50;;
15944;SDS011;30172;48.832;8.732;2023-05-07T19:39:30;5.18;;;3.78;;
15944;SDS011;30172;48.832;8.732;2023-05-07T19:41:56;5.38;;;4.78;;
15944;SDS011;30172;48.832;8.732;2023-05-07T19:44:27;5.68;;;4.82;;
15944;SDS011;30172;48.832;8.732;2023-05-07T19:47:02;5.72;;;4.55;;
15944;SDS011;30172;48.832;8.732;2023-05-07T19:49:29;4.50;;;4.05;;
15944;SDS011;30172;48.832;8.732;2023-05-07T19:52:00;3.60;;;3.30;;
15944;SDS011;30172;48.832;8.732;2023-05-07T19:54:34;3.88;;;3.28;;
15944;SDS011;30172;48.832;8.732;2023-05-07T19:57:24;4.63;;;3.83;;
15944;SDS011;30172;48.832;8.732;2023-05-07T20:07:28;4.27;;;3.50;;
15944;SDS011;30172;48.832;8.732;2023-05-07T20:10:10;4.47;;;4.07;;
15944;SDS011;30172;48.832;8.732;2023-05-07T20:16:02;3.92;;;3.63;;
15944;SDS011;30172;48.832;8.732;2023-05-07T20:18:38;6.07;;;4.10;;
15944;SDS011;30172;48.832;8.732;2023-05-07T20:24:43;6.37;;;3.97;;
15944;SDS011;30172;48.832;8.732;2023-05-07T20:46:08;6.50;;;4.33;;
15944;SDS011;30172;48.832;8.732;2023-05-07T20:49:03;4.90;;;4.47;;
15944;SDS011;30172;48.832;8.732;2023-05-07T20:51:39;5.43;;;4.93;;
15944;SDS011;30172;48.832;8.732;2023-05-07T20:54:04;6.90;;;4.60;;
15944;SDS011;30172;48.832;8.732;2023-05-07T20:56:32;5.73;;;4.60;;
15944;SDS011;30172;48.832;8.732;2023-05-07T20:58:57;5.77;;;4.77;;
15944;SDS011;30172;48.832;8.732;2023-05-07T21:01:23;5.10;;;4.67;;
15944;SDS011;30172;48.832;8.732;2023-05-07T21:03:48;5.17;;;4.50;;
15944;SDS011;30172;48.832;8.732;2023-05-07T21:06:14;5.47;;;4.60;;
15944;SDS011;30172;48.832;8.732;2023-05-07T21:08:39;4.43;;;4.03;;
15944;SDS011;30172;48.832;8.732;2023-05-07T21:11:04;4.97;;;4.17;;
15944;SDS011;30172;48.832;8.732;2023-05-07T21:13:30;4.97;;;4.57;;
15944;SDS011;30172;48.832;8.732;2023-05-07T21:15:55;5.30;;;4.80;;
15944;SDS011;30172;48.832;8.732;2023-05-07T21:18:20;7.13;;;4.50;;
15944;SDS011;30172;48.832;8.732;2023-05-07T21:20:46;5.20;;;4.80;;
15944;SDS011;30172;48.832;8.732;2023-05-07T21:23:11;6.40;;;5.70;;
15944;SDS011;30172;48.832;8.732;2023-05-07T21:25:37;5.77;;;5.17;;
15944;SDS011;30172;48.832;8.732;2023-05-07T21:28:08;5.53;;;5.03;;
15944;SDS011;30172;48.832;8.732;2023-05-07T21:30:33;5.20;;;4.80;;
15944;SDS011;30172;48.832;8.732;2023-05-07T21:32:59;5.50;;;5.00;;
15944;SDS011;30172;48.832;8.732;2023-05-07T21:35:24;5.40;;;4.90;;
15944;SDS011;30172;48.832;8.732;2023-05-07T21:37:50;6.03;;;5.27;;
15944;SDS011;30172;48.832;8.732;2023-05-07T21:40:15;6.80;;;5.23;;
15944;SDS011;30172;48.832;8.732;2023-05-07T21:42:40;5.37;;;4.87;;
15944;SDS011;30172;48.832;8.732;2023-05-07T21:45:06;5.93;;;4.87;;
15944;SDS011;30172;48.832;8.732;2023-05-07T21:47:31;6.47;;;5.50;;
15944;SDS011;30172;48.832;8.732;2023-05-07T21:49:56;7.57;;;5.13;;
15944;SDS011;30172;48.832;8.732;2023-05-07T21:52:22;6.17;;;5.03;;
15944;SDS011;30172;48.832;8.732;2023-05-07T21:54:50;5.97;;;5.37;;
15944;SDS011;30172;48.832;8.732;2023-05-07T21:57:17;5.97;;;5.40;;
15944;SDS011;30172;48.832;8.732;2023-05-07T21:59:42;6.17;;;5.33;;
15944;SDS011;30172;48.832;8.732;2023-05-07T22:02:07;5.83;;;5.33;;
15944;SDS011;30172;48.832;8.732;2023-05-07T22:04:32;6.37;;;5.40;;
15944;SDS011;30172;48.832;8.732;2023-05-07T22:06:58;7.23;;;5.93;;
15944;SDS011;30172;48.832;8.732;2023-05-07T22:09:23;7.27;;;6.10;;
15944;SDS011;30172;48.832;8.732;2023-05-07T22:11:48;6.13;;;5.53;;
15944;SDS011;30172;48.832;8.732;2023-05-07T22:14:14;6.37;;;5.77;;
15944;SDS011;30172;48.832;8.732;2023-05-07T22:16:39;7.00;;;6.30;;
15944;SDS011;30172;48.832;8.732;2023-05-07T22:19:04;6.97;;;5.77;;
15944;SDS011;30172;48.832;8.732;2023-05-07T22:21:30;6.50;;;5.90;;
15944;SDS011;30172;48.832;8.732;2023-05-07T22:23:56;7.07;;;6.47;;
15944;SDS011;30172;48.832;8.732;2023-05-07T22:26:21;7.40;;;6.67;;
15944;SDS011;30172;48.832;8.732;2023-05-07T22:28:46;6.27;;;5.67;;
15944;SDS011;30172;48.832;8.732;2023-05-07T22:31:12;6.40;;;5.80;;
15944;SDS011;30172;48.832;8.732;2023-05-07T22:33:37;8.63;;;6.73;;
15944;SDS011;30172;48.832;8.732;2023-05-07T22:36:02;6.67;;;6.00;;
15944;SDS011;30172;48.832;8.732;2023-05-07T22:38:28;8.43;;;7.03;;
15944;SDS011;30172;48.832;8.732;2023-05-07T22:40:54;7.43;;;6.72;;
15944;SDS011;30172;48.832;8.732;2023-05-07T22:43:19;8.67;;;6.93;;
15944;SDS011;30172;48.832;8.732;2023-05-07T22:45:45;10.40;;;7.93;;
15944;SDS011;30172;48.832;8.732;2023-05-07T22:48:10;8.90;;;7.00;;
15944;SDS011;30172;48.832;8.732;2023-05-07T22:50:36;9.70;;;8.47;;
15944;SDS011;30172;48.832;8.732;2023-05-07T22:53:01;12.40;;;9.57;;
15944;SDS011;30172;48.832;8.732;2023-05-07T22:55:27;12.20;;;10.40;;
15944;SDS011;30172;48.832;8.732;2023-05-07T22:57:52;13.43;;;11.17;;
15944;SDS011;30172;48.832;8.732;2023-05-07T23:00:17;11.17;;;10.07;;
15944;SDS011;30172;48.832;8.732;2023-05-07T23:02:43;14.00;;;11.17;;
15944;SDS011;30172;48.832;8.732;2023-05-07T23:05:08;13.50;;;12.13;;
15944;SDS011;30172;48.832;8.732;2023-05-07T23:07:33;13.48;;;12.18;;
15944;SDS011;30172;48.832;8.732;2023-05-07T23:09:59;14.37;;;12.97;;
15944;SDS011;30172;48.832;8.732;2023-05-07T23:12:24;14.90;;;13.33;;
15944;SDS011;30172;48.832;8.732;2023-05-07T23:14:49;15.83;;;13.07;;
15944;SDS011;30172;48.832;8.732;2023-05-07T23:17:15;13.40;;;12.00;;
15944;SDS011;30172;48.832;8.732;2023-05-07T23:19:40;15.43;;;13.45;;
15944;SDS011;30172;48.832;8.732;2023-05-07T23:22:05;18.10;;;15.27;;
15944;SDS011;30172;48.832;8.732;2023-05-07T23:24:31;17.40;;;15.57;;
15944;SDS011;30172;48.832;8.732;2023-05-07T23:26:56;16.17;;;14.47;;
15944;SDS011;30172;48.832;8.732;2023-05-07T23:29:21;17.97;;;15.03;;
15944;SDS011;30172;48.832;8.732;2023-05-07T23:31:47;15.10;;;13.70;;
15944;SDS011;30172;48.832;8.732;2023-05-07T23:34:12;15.43;;;13.57;;
15944;SDS011;30172;48.832;8.732;2023-05-07T23:36:37;16.03;;;14.53;;
15944;SDS011;30172;48.832;8.732;2023-05-07T23:39:02;15.83;;;13.80;;
15944;SDS011;30172;48.832;8.732;2023-05-07T23:41:28;18.73;;;15.33;;
15944;SDS011;30172;48.832;8.732;2023-05-07T23:43:53;18.43;;;16.60;;
15944;SDS011;30172;48.832;8.732;2023-05-07T23:46:18;22.60;;;17.87;;
15944;SDS011;30172;48.832;8.732;2023-05-07T23:48:44;17.20;;;15.40;;
15944;SDS011;30172;48.832;8.732;2023-05-07T23:51:09;19.60;;;16.80;;
15944;SDS011;30172;48.832;8.732;2023-05-07T23:53:35;19.97;;;17.87;;
15944;SDS011;30172;48.832;8.732;2023-05-07T23:56:00;21.30;;;17.60;;
15944;SDS011;30172;48.832;8.732;2023-05-07T23:58:25;21.83;;;18.07;;
